Strona główna
METAR-TAF:

METAR-TAF

Lotnisko :

Port lotniczy Bużumbura

Bużumbura, Burundi

Szerokość geograficzna: 03-19S, Długość geograficzna: 029-19E, wysokość: 782 m

Aktualna obserwacja pogody

Raport powstał 3 godziny i 27 minut temu, godzina 11:00 UTC
Wiatr 16 kt od południe
Temperatura
Ciśnienie
Widzialność: 7000 m
Mało chmury na wysokości 3000 ft, Cumulusy wypiętrznone.

METAR: HBBA 241100Z 18016KT 7000 FEW030TCU

czas: 16:27 (14:27 UTC)

Prognoza

Raport powstał 3 godziny i 27 minut temu, godzina 11:00 UTC
Prognoza ważna od 24 godzina 12 UTC do 25 godzina 18 UTC
Wiatr 10 kt od południe w porywach dochodzący do 25 kt
Widzialność: 8000 m
Mało chmury na wysokości 3000 ft
Mało chmury na wysokości 3000 ft
zmętnienie

TAF: HBBA 241100Z 2412/2518 18010G30KT 7000 FEW030 BECMG2417/2419 VRB03KT CAVOK BECMG2503/2505 36003KT BECMG2506/2508 5000 HZ NSC BECMG2509/2510 18010G25KT 8000 FEW030

Obserwacja i prognoza pogody dla ponad 4000 lotnisk (raport METAR i TAF).

Dostępne stacje oznaczono żółtymi i czerwonymi punktami na mapie.

Najedź kursorem aby zobaczyć nazwę stacji.

Kliknij aby zobaczyć obserwacje i prognozy pogody.

Aby zmienić mapę: kliknij na zielony przycisk z czarnym krzyżykiem, aby powiększyć; na zielony przycisk z myślnikiem, aby pomniejszyć; na zielone strzałki, aby przejść do map sąsiednich.


METAR-TAF: